Time;durP1;ratioP1;P1;durP2;ratioP2;P2;SDS_P1;SDS_P2;PMS_P1;PMS_P2;Temp;Humidity;BMP_temperature;BMP_pressure;BME280_temperature;BME280_humidity;BME280_pressure;Samples;Min_cycle;Max_cycle;Signal;HPM_P1;HPM_P2
2022/01/01 00:03:26;;;;;;;119.63;47.87;;;9.20;99.90;;;;;;10230623;29;20562;-87
2022/01/01 00:08:38;;;;;;;118.77;47.00;;;9.20;99.90;;;;;;10247043;29;20098;-88
2022/01/01 00:14:08;;;;;;;103.07;42.23;;;9.20;99.90;;;;;;10230561;29;20023;-89
2022/01/01 00:19:09;;;;;;;125.70;49.23;;;9.20;99.90;;;;;;10230674;29;20051;-88
2022/01/01 00:24:12;;;;;;;97.97;40.67;;;9.20;99.90;;;;;;10247952;29;20416;-88
2022/01/01 00:29:12;;;;;;;88.73;36.33;;;9.20;99.90;;;;;;10245852;29;20086;-88
2022/01/01 00:34:13;;;;;;;78.63;36.37;;;9.20;99.90;;;;;;10246573;28;20085;-88
2022/01/01 00:39:14;;;;;;;83.60;34.53;;;9.20;99.90;;;;;;10245438;29;20122;-88
2022/01/01 00:44:14;;;;;;;69.80;30.63;;;9.20;99.90;;;;;;10230350;29;20661;-88
2022/01/01 00:49:15;;;;;;;77.63;34.07;;;9.20;99.90;;;;;;10228817;29;20042;-88
2022/01/01 00:54:16;;;;;;;64.83;28.80;;;9.20;99.90;;;;;;10229685;29;20368;-89
2022/01/01 00:59:20;;;;;;;64.90;28.43;;;9.20;99.90;;;;;;10248454;29;20074;-90
2022/01/01 01:04:21;;;;;;;57.07;26.10;;;9.30;99.90;;;;;;10230496;29;20395;-90
2022/01/01 01:09:22;;;;;;;58.20;26.40;;;9.20;99.90;;;;;;10230582;29;20032;-87
2022/01/01 01:14:24;;;;;;;63.93;29.03;;;9.30;99.90;;;;;;10246013;29;20028;-86
2022/01/01 01:19:25;;;;;;;71.80;30.97;;;9.40;99.90;;;;;;10247172;28;20031;-88
2022/01/01 01:24:27;;;;;;;68.67;27.50;;;9.30;99.90;;;;;;10244612;29;20039;-86
2022/01/01 01:29:32;;;;;;;64.17;28.23;;;9.40;99.90;;;;;;10246313;29;20106;-91
2022/01/01 01:34:33;;;;;;;86.28;35.92;;;9.40;99.90;;;;;;10228856;29;20150;-89
2022/01/01 01:39:34;;;;;;;76.60;33.17;;;9.40;99.90;;;;;;10229337;29;20573;-87
2022/01/01 01:44:42;;;;;;;65.33;27.40;;;9.40;99.90;;;;;;10232583;28;20035;-88
2022/01/01 01:49:47;;;;;;;56.93;24.97;;;9.40;99.90;;;;;;10235709;29;20043;-89
2022/01/01 01:54:47;;;;;;;85.23;34.83;;;9.40;99.90;;;;;;10253861;29;20027;-85
2022/01/01 01:59:51;;;;;;;72.70;29.93;;;9.50;99.90;;;;;;10253735;29;20053;-90
2022/01/01 02:04:52;;;;;;;53.60;22.87;;;9.50;99.90;;;;;;10253742;29;20079;-88
2022/01/01 02:09:53;;;;;;;56.20;21.63;;;9.50;99.90;;;;;;10236575;29;20192;-88
2022/01/01 02:20:08;;;;;;;50.73;20.63;;;9.50;99.90;;;;;;10250435;29;20410;-88
2022/01/01 02:25:08;;;;;;;44.30;17.23;;;9.50;99.90;;;;;;10228314;29;20090;-83
2022/01/01 02:30:13;;;;;;;39.17;18.03;;;9.50;99.90;;;;;;10251232;29;20051;-87
2022/01/01 02:35:16;;;;;;;35.80;15.93;;;9.60;99.90;;;;;;10224877;29;20048;-87
2022/01/01 02:40:17;;;;;;;32.53;14.57;;;9.60;99.90;;;;;;10250498;29;20086;-87
2022/01/01 02:45:18;;;;;;;48.10;19.10;;;9.60;99.90;;;;;;10248236;28;20110;-88
2022/01/01 02:50:18;;;;;;;33.57;14.63;;;9.60;99.90;;;;;;10265640;28;20053;-87
2022/01/01 02:55:19;;;;;;;46.10;19.03;;;9.60;99.90;;;;;;10224942;28;20030;-88
2022/01/01 03:00:20;;;;;;;40.20;15.30;;;9.60;99.90;;;;;;10230282;29;20452;-88
2022/01/01 03:05:21;;;;;;;32.80;13.17;;;9.60;99.90;;;;;;10234824;29;20471;-88
2022/01/01 03:10:22;;;;;;;25.37;11.13;;;9.60;99.90;;;;;;10233804;29;20113;-86
2022/01/01 03:15:22;;;;;;;28.92;12.60;;;9.60;99.90;;;;;;10226428;29;20032;-88
2022/01/01 03:20:23;;;;;;;51.37;20.93;;;9.60;99.90;;;;;;10199238;29;20031;-88
2022/01/01 03:25:27;;;;;;;50.87;19.33;;;9.60;99.90;;;;;;10234772;29;20387;-87
2022/01/01 03:30:28;;;;;;;43.93;15.37;;;9.60;99.90;;;;;;10228689;28;20035;-89
2022/01/01 03:35:29;;;;;;;27.63;11.50;;;9.60;99.90;;;;;;10233078;29;20051;-88
2022/01/01 03:40:30;;;;;;;25.70;11.00;;;9.60;99.90;;;;;;10231012;29;20257;-88
2022/01/01 03:45:30;;;;;;;32.83;12.90;;;9.70;99.90;;;;;;10233040;29;20023;-88
2022/01/01 03:50:32;;;;;;;32.73;13.87;;;9.70;99.90;;;;;;10231981;29;20510;-89
2022/01/01 03:55:33;;;;;;;44.75;17.02;;;9.70;99.90;;;;;;10218067;29;20074;-89
2022/01/01 04:00:34;;;;;;;36.60;15.03;;;9.70;99.90;;;;;;10218650;29;20578;-88
2022/01/01 04:05:36;;;;;;;52.37;23.00;;;9.70;99.90;;;;;;10217570;28;20058;-89
2022/01/01 04:10:38;;;;;;;36.15;15.95;;;9.70;99.90;;;;;;10247281;29;20055;-87
2022/01/01 04:15:40;;;;;;;40.90;15.83;;;9.70;99.90;;;;;;10248635;29;20038;-87
2022/01/01 04:20:44;;;;;;;32.03;12.68;;;9.80;99.90;;;;;;10232023;29;20023;-87
2022/01/01 04:25:47;;;;;;;40.53;16.77;;;9.80;99.90;;;;;;10192219;29;20396;-88
2022/01/01 04:30:48;;;;;;;39.17;16.73;;;9.80;99.90;;;;;;10209987;29;20067;-86
2022/01/01 04:35:48;;;;;;;36.07;13.80;;;9.80;99.90;;;;;;10212987;29;20492;-89
2022/01/01 04:40:49;;;;;;;35.57;13.00;;;9.80;99.90;;;;;;10243682;29;20531;-87
2022/01/01 04:45:50;;;;;;;32.90;13.13;;;9.90;99.90;;;;;;10226588;29;20071;-85
2022/01/01 04:50:51;;;;;;;39.87;14.90;;;9.80;99.90;;;;;;10237291;29;20503;-86
2022/01/01 04:55:52;;;;;;;38.50;15.40;;;9.90;99.90;;;;;;10220564;29;20063;-86
2022/01/01 05:00:52;;;;;;;40.53;15.97;;;9.80;99.90;;;;;;10224054;29;20205;-87
2022/01/01 05:05:53;;;;;;;37.37;14.30;;;9.80;99.90;;;;;;10221968;29;20031;-87
2022/01/01 05:10:54;;;;;;;32.27;13.80;;;9.80;99.90;;;;;;10219987;29;20114;-87
2022/01/01 05:15:56;;;;;;;48.40;20.43;;;9.80;99.90;;;;;;10241767;29;20178;-88
2022/01/01 05:20:56;;;;;;;41.93;16.27;;;9.80;99.90;;;;;;10229652;29;20031;-89
2022/01/01 05:25:57;;;;;;;39.07;14.70;;;9.80;99.90;;;;;;10234008;29;20036;-88
2022/01/01 05:30:58;;;;;;;33.08;11.85;;;9.80;99.90;;;;;;10207045;29;20023;-88
2022/01/01 05:35:58;;;;;;;34.43;13.97;;;9.90;99.90;;;;;;10208969;29;20056;-89
2022/01/01 05:40:59;;;;;;;35.27;14.63;;;9.90;99.90;;;;;;10214942;29;20071;-87
2022/01/01 05:46:00;;;;;;;43.93;17.90;;;9.90;99.90;;;;;;10228240;29;20029;-87
2022/01/01 05:51:00;;;;;;;33.40;13.43;;;9.90;99.90;;;;;;10216165;29;20047;-87
2022/01/01 05:56:01;;;;;;;36.23;13.47;;;9.90;99.90;;;;;;10237689;29;20617;-87
2022/01/01 06:01:02;;;;;;;23.80;9.83;;;9.90;99.90;;;;;;10207842;29;20039;-88
2022/01/01 06:06:02;;;;;;;25.87;10.70;;;9.90;99.90;;;;;;10239566;29;20376;-87
2022/01/01 06:11:03;;;;;;;30.45;12.73;;;9.90;99.90;;;;;;10211763;29;20035;-87
2022/01/01 06:16:04;;;;;;;39.07;11.97;;;9.90;99.90;;;;;;10207760;29;20091;-88
2022/01/01 06:21:05;;;;;;;30.80;12.23;;;10.00;99.90;;;;;;10208008;29;20036;-87
2022/01/01 06:26:07;;;;;;;25.00;10.03;;;10.00;99.90;;;;;;10209688;29;20492;-86
2022/01/01 06:31:07;;;;;;;30.10;13.30;;;9.90;99.90;;;;;;10213534;29;20052;-87
2022/01/01 06:36:12;;;;;;;30.33;11.73;;;9.90;99.90;;;;;;10214888;29;20762;-87
2022/01/01 06:41:13;;;;;;;33.17;13.23;;;9.90;99.90;;;;;;10217259;29;20540;-89
2022/01/01 06:46:13;;;;;;;29.07;12.77;;;9.90;99.90;;;;;;10197340;29;20027;-85
2022/01/01 06:51:15;;;;;;;38.13;17.30;;;9.90;99.90;;;;;;10239514;29;20106;-86
2022/01/01 06:56:16;;;;;;;47.40;18.60;;;9.90;99.90;;;;;;10217028;29;20047;-86
2022/01/01 07:01:16;;;;;;;44.17;16.83;;;9.90;99.90;;;;;;10247717;29;20454;-85
2022/01/01 07:06:17;;;;;;;44.42;19.02;;;9.90;99.90;;;;;;10227570;29;20047;-87
2022/01/01 07:11:18;;;;;;;51.03;21.10;;;9.90;99.90;;;;;;10248566;29;20024;-86
2022/01/01 07:16:20;;;;;;;58.17;23.05;;;9.90;99.90;;;;;;10202098;29;20040;-85
2022/01/01 07:21:20;;;;;;;53.93;23.07;;;9.80;99.90;;;;;;10214652;29;20034;-84
2022/01/01 07:26:22;;;;;;;47.70;21.47;;;9.90;99.90;;;;;;10248083;29;20042;-86
2022/01/01 07:31:22;;;;;;;58.87;21.73;;;9.90;99.90;;;;;;10246364;29;20122;-85
2022/01/01 07:36:23;;;;;;;58.40;24.80;;;9.90;99.90;;;;;;10248626;29;20142;-86
2022/01/01 07:41:24;;;;;;;55.47;25.53;;;9.90;99.90;;;;;;10245588;28;20042;-87
2022/01/01 07:46:25;;;;;;;64.53;25.30;;;9.90;99.90;;;;;;10249850;29;20035;-87
2022/01/01 07:51:25;;;;;;;58.43;24.90;;;9.80;99.90;;;;;;10229516;29;20039;-85
2022/01/01 07:56:27;;;;;;;33.65;14.27;;;9.90;99.90;;;;;;10230827;29;20035;-86
2022/01/01 08:01:28;;;;;;;35.10;15.60;;;9.90;99.90;;;;;;10245658;29;20023;-89
2022/01/01 08:06:32;;;;;;;28.53;12.20;;;9.90;99.90;;;;;;10245009;29;20497;-85
2022/01/01 08:11:32;;;;;;;30.30;11.00;;;9.90;99.90;;;;;;10216465;29;20031;-85
2022/01/01 08:16:33;;;;;;;28.93;12.80;;;9.90;99.90;;;;;;10248181;29;20589;-87
2022/01/01 08:21:34;;;;;;;51.38;21.85;;;9.90;99.90;;;;;;10196979;29;20035;-88
2022/01/01 08:26:34;;;;;;;48.63;20.30;;;9.90;99.90;;;;;;10242646;29;20035;-87
2022/01/01 08:31:35;;;;;;;38.40;14.23;;;9.90;99.90;;;;;;10237178;29;20391;-86
2022/01/01 08:36:36;;;;;;;28.35;11.15;;;9.90;99.90;;;;;;10232174;28;20456;-87
2022/01/01 08:41:37;;;;;;;28.50;12.05;;;9.90;99.90;;;;;;10238278;29;20027;-87
2022/01/01 08:46:38;;;;;;;28.63;12.13;;;9.90;99.90;;;;;;10193172;29;20028;-86
2022/01/01 08:51:42;;;;;;;25.70;10.47;;;9.90;99.90;;;;;;10232537;28;20114;-86
2022/01/01 08:56:43;;;;;;;19.90;9.40;;;10.00;99.90;;;;;;10195999;29;20518;-86
2022/01/01 09:01:44;;;;;;;36.63;16.27;;;10.00;99.90;;;;;;10210659;29;20035;-86
2022/01/01 09:06:44;;;;;;;27.10;10.07;;;10.00;99.90;;;;;;10248038;29;20031;-85
2022/01/01 09:11:45;;;;;;;49.30;18.50;;;10.00;99.90;;;;;;10247373;29;20059;-87
2022/01/01 09:16:46;;;;;;;39.10;13.90;;;10.00;99.90;;;;;;10239008;29;20035;-89
2022/01/01 09:21:46;;;;;;;59.15;23.33;;;10.10;99.90;;;;;;10230104;29;20027;-86
2022/01/01 09:26:47;;;;;;;51.78;20.83;;;10.10;99.90;;;;;;10247973;29;20023;-86
2022/01/01 09:31:48;;;;;;;47.10;16.60;;;10.10;99.90;;;;;;10227941;29;20035;-86
2022/01/01 09:36:50;;;;;;;58.30;23.58;;;10.10;99.90;;;;;;10227213;29;20059;-88
2022/01/01 09:41:51;;;;;;;49.72;19.95;;;10.10;99.90;;;;;;10207021;29;20051;-86
2022/01/01 09:46:51;;;;;;;117.20;41.17;;;10.10;99.90;;;;;;10194993;29;20123;-87
2022/01/01 09:51:52;;;;;;;80.43;30.00;;;10.10;99.90;;;;;;10226809;29;20065;-86
2022/01/01 09:56:53;;;;;;;80.37;24.83;;;10.00;99.90;;;;;;10242587;29;20035;-87
2022/01/01 10:01:54;;;;;;;45.10;15.45;;;10.00;99.90;;;;;;10228526;29;20551;-83
2022/01/01 10:07:02;;;;;;;12.73;5.05;;;10.00;99.90;;;;;;10251372;28;20035;-89
2022/01/01 10:12:06;;;;;;;0.40;0.40;;;10.00;99.90;;;;;;10232502;29;20084;-88
2022/01/01 10:17:14;;;;;;;3.93;0.47;;;10.00;99.90;;;;;;10217971;29;20038;-85
2022/01/01 10:22:18;;;;;;;0.57;0.57;;;10.00;99.90;;;;;;10250256;29;20038;-85
2022/01/01 10:32:38;;;;;;;2.78;2.55;;;9.90;99.90;;;;;;10250561;29;20039;-86
2022/01/01 10:37:40;;;;;;;4.65;1.80;;;9.90;99.90;;;;;;10233805;29;20400;-86
2022/01/01 10:42:50;;;;;;;1.10;1.10;;;10.00;99.90;;;;;;10250611;29;20031;-86
2022/01/01 10:48:15;;;;;;;0.70;0.70;;;10.00;99.90;;;;;;10243176;28;20038;-88
2022/01/01 10:53:27;;;;;;;0.47;0.47;;;10.10;99.90;;;;;;10232661;29;20177;-85
2022/01/01 10:58:34;;;;;;;0.25;0.20;;;10.10;99.90;;;;;;10241053;29;20035;-87
2022/01/01 11:03:42;;;;;;;0.17;0.17;;;10.10;99.90;;;;;;10239929;29;20086;-86
2022/01/01 11:08:46;;;;;;;1.17;0.88;;;10.10;99.90;;;;;;10238772;29;20031;-85
2022/01/01 11:13:47;;;;;;;0.45;0.45;;;10.10;99.90;;;;;;10229328;29;20407;-88
2022/01/01 11:19:24;;;;;;;2.40;1.77;;;10.10;99.90;;;;;;10242656;28;20440;-88
2022/01/01 11:29:56;;;;;;;0.20;0.20;;;10.00;99.90;;;;;;10237915;29;20620;-89
2022/01/01 11:35:08;;;;;;;0.00;0.00;;;9.90;99.90;;;;;;10226659;29;20566;-88
2022/01/01 11:40:09;;;;;;;0.00;0.00;;;9.90;99.90;;;;;;10244256;29;20054;-88
2022/01/01 11:45:33;;;;;;;0.43;0.43;;;9.90;99.90;;;;;;10213333;29;20114;-88
2022/01/01 11:50:44;;;;;;;0.00;0.00;;;9.90;99.90;;;;;;10221005;29;20038;-91
2022/01/01 11:56:41;;;;;;;0.77;0.63;;;9.90;99.90;;;;;;10227198;29;20062;-90
2022/01/01 12:01:53;;;;;;;3.70;1.10;;;9.90;99.90;;;;;;10115732;29;20056;-89
2022/01/01 12:06:59;;;;;;;0.47;0.47;;;9.90;99.90;;;;;;10191003;28;20035;-88
2022/01/01 12:12:05;;;;;;;0.83;0.83;;;9.90;99.90;;;;;;10216406;29;20439;-88
2022/01/01 12:17:05;;;;;;;0.22;0.22;;;9.90;99.90;;;;;;10216794;29;20067;-86
2022/01/01 12:22:07;;;;;;;0.50;0.30;;;9.90;99.90;;;;;;10192781;29;20082;-88
2022/01/01 12:27:14;;;;;;;0.88;0.57;;;10.00;99.90;;;;;;10233811;28;20039;-87
2022/01/01 12:32:35;;;;;;;0.80;0.80;;;10.00;99.90;;;;;;10241646;29;20028;-88
2022/01/01 12:37:37;;;;;;;0.00;0.00;;;10.00;99.90;;;;;;10198073;29;20155;-85
2022/01/01 12:42:44;;;;;;;0.10;0.10;;;10.10;99.90;;;;;;10237270;29;20031;-86
2022/01/01 12:47:47;;;;;;;2.15;2.05;;;10.00;99.90;;;;;;10224733;29;20043;-87
2022/01/01 12:52:53;;;;;;;1.52;1.48;;;10.00;99.90;;;;;;10192714;29;20535;-87
2022/01/01 12:58:09;;;;;;;1.48;1.38;;;10.00;99.90;;;;;;10226363;29;20070;-85
2022/01/01 13:03:13;;;;;;;0.57;0.55;;;9.90;99.90;;;;;;10208220;29;20062;-86
2022/01/01 13:08:14;;;;;;;0.55;0.55;;;9.90;99.90;;;;;;10233795;29;20078;-85
2022/01/01 13:13:18;;;;;;;0.00;0.00;;;10.00;99.90;;;;;;10205436;29;20042;-87
2022/01/01 13:18:19;;;;;;;1.60;1.50;;;9.90;99.90;;;;;;10230071;29;20043;-88
2022/01/01 13:23:22;;;;;;;1.13;0.63;;;10.00;99.90;;;;;;10216521;29;20047;-86
2022/01/01 13:28:30;;;;;;;1.53;1.50;;;10.00;99.90;;;;;;10213926;29;20027;-85
2022/01/01 13:33:33;;;;;;;0.77;0.77;;;10.00;99.90;;;;;;10229135;29;20079;-85
2022/01/01 13:38:34;;;;;;;0.60;0.60;;;10.00;99.90;;;;;;10233719;28;20047;-86
2022/01/01 13:43:36;;;;;;;1.60;0.85;;;10.00;99.90;;;;;;10235403;29;20086;-87
2022/01/01 13:48:44;;;;;;;1.33;1.30;;;10.00;99.90;;;;;;10238578;29;20039;-86
2022/01/01 13:53:47;;;;;;;0.47;0.47;;;9.90;99.90;;;;;;10221327;29;20130;-87
2022/01/01 13:58:51;;;;;;;0.98;0.98;;;9.90;99.90;;;;;;10226890;29;20058;-86
2022/01/01 14:03:53;;;;;;;1.45;0.75;;;9.90;99.90;;;;;;10206887;29;20031;-89
2022/01/01 14:08:58;;;;;;;0.23;0.13;;;9.90;99.90;;;;;;10230784;29;20039;-88
2022/01/01 14:14:06;;;;;;;0.00;0.00;;;9.80;99.90;;;;;;10216316;29;20119;-89
2022/01/01 14:19:20;;;;;;;0.70;0.70;;;9.80;99.90;;;;;;10237159;28;20076;-88
2022/01/01 14:24:23;;;;;;;0.00;0.00;;;9.80;99.90;;;;;;10260014;28;20573;-90
2022/01/01 14:29:24;;;;;;;0.00;0.00;;;9.80;99.90;;;;;;10227143;29;20027;-88
2022/01/01 14:34:24;;;;;;;0.00;0.00;;;9.70;99.90;;;;;;10228421;29;20419;-88
2022/01/01 14:39:25;;;;;;;0.57;0.40;;;9.70;99.90;;;;;;10238779;29;20039;-89
2022/01/01 14:44:26;;;;;;;1.60;0.93;;;9.70;99.90;;;;;;10213966;28;20852;-88
2022/01/01 14:49:42;;;;;;;0.93;0.90;;;9.70;99.90;;;;;;10224416;28;20030;-88
2022/01/01 14:55:09;;;;;;;0.80;0.80;;;9.70;99.90;;;;;;10237247;29;20043;-88
2022/01/01 15:00:15;;;;;;;1.20;1.20;;;9.70;99.90;;;;;;10229259;28;20035;-87
2022/01/01 15:05:17;;;;;;;0.03;0.03;;;9.70;99.90;;;;;;10239087;28;20039;-87
2022/01/01 15:10:19;;;;;;;0.93;0.93;;;9.60;99.90;;;;;;10227853;28;20043;-88
2022/01/01 15:15:23;;;;;;;0.77;0.77;;;9.60;99.90;;;;;;10221163;28;20050;-88
2022/01/01 15:20:23;;;;;;;0.20;0.20;;;9.60;99.90;;;;;;10237572;28;20102;-88
2022/01/01 15:25:27;;;;;;;0.37;0.37;;;9.60;99.90;;;;;;10216017;29;20111;-88
2022/01/01 15:41:03;;;;;;;0.00;0.00;;;9.60;99.90;;;;;;10243403;29;20082;-87
2022/01/01 15:46:04;;;;;;;0.67;0.67;;;9.60;99.90;;;;;;10214784;29;20032;-86
2022/01/01 15:51:05;;;;;;;0.77;0.33;;;9.60;99.90;;;;;;10223754;29;20027;-89
2022/01/01 15:56:15;;;;;;;0.10;0.10;;;9.60;99.90;;;;;;10245907;29;20399;-89
2022/01/01 16:01:29;;;;;;;1.10;1.10;;;9.60;99.90;;;;;;10240550;28;20122;-90
2022/01/01 16:06:34;;;;;;;0.37;0.37;;;9.60;99.90;;;;;;10230711;29;20073;-89
2022/01/01 16:12:36;;;;;;;0.00;0.00;;;9.50;99.90;;;;;;10229598;28;20063;-88
2022/01/01 16:17:40;;;;;;;0.33;0.33;;;9.50;99.90;;;;;;10224945;29;20413;-90
2022/01/01 16:22:40;;;;;;;0.67;0.67;;;9.50;99.90;;;;;;10226699;29;20042;-89
2022/01/01 16:27:41;;;;;;;1.53;1.43;;;9.40;99.90;;;;;;10226115;29;20703;-87
2022/01/01 16:32:43;;;;;;;2.20;1.20;;;9.40;99.90;;;;;;10230279;28;20035;-88
2022/01/01 16:37:44;;;;;;;1.03;0.60;;;9.40;99.90;;;;;;10226905;28;20066;-88
2022/01/01 16:42:47;;;;;;;1.70;1.60;;;9.40;99.90;;;;;;10242462;28;20034;-89
2022/01/01 16:47:53;;;;;;;6.23;2.17;;;9.40;99.90;;;;;;10240450;29;20031;-89
2022/01/01 16:52:54;;;;;;;;;;;9.40;99.90;;;;;;10225226;29;20031;-88
2022/01/01 16:58:11;;;;;;;2.00;1.70;;;9.50;99.90;;;;;;10227230;29;19969;-87
2022/01/01 17:04:00;;;;;;;7.13;3.93;;;9.50;99.90;;;;;;10243629;29;20027;-88
2022/01/01 17:09:02;;;;;;;1.50;0.80;;;9.40;99.90;;;;;;10233193;29;20531;-87
2022/01/01 17:14:07;;;;;;;0.67;0.67;;;9.40;99.90;;;;;;10241722;28;20035;-88
2022/01/01 17:19:33;;;;;;;0.10;0.10;;;9.40;99.90;;;;;;10239144;29;20035;-87
2022/01/01 17:24:43;;;;;;;0.30;0.30;;;9.40;99.90;;;;;;10233722;29;20027;-87
2022/01/01 17:29:48;;;;;;;3.63;2.43;;;9.40;99.90;;;;;;10227626;29;20035;-88
2022/01/01 17:40:18;;;;;;;0.00;0.00;;;9.40;99.90;;;;;;10171383;29;20299;-86
2022/01/01 17:45:21;;;;;;;1.85;1.30;;;9.40;99.90;;;;;;10216140;29;20118;-87
2022/01/01 17:50:24;;;;;;;1.27;1.27;;;9.50;99.90;;;;;;10207974;29;20024;-87
2022/01/01 17:55:26;;;;;;;0.63;0.63;;;9.50;99.90;;;;;;10245053;29;20031;-87
2022/01/01 18:00:28;;;;;;;0.52;0.52;;;9.40;99.90;;;;;;10239388;29;20044;-87
2022/01/01 18:05:30;;;;;;;0.00;0.00;;;9.50;99.90;;;;;;10212385;29;20122;-87
2022/01/01 18:10:37;;;;;;;0.20;0.20;;;9.40;99.90;;;;;;10248308;28;20026;-87
2022/01/01 18:15:43;;;;;;;0.77;0.77;;;9.50;99.90;;;;;;10235120;28;20047;-87
2022/01/01 18:20:44;;;;;;;3.50;1.35;;;9.40;99.90;;;;;;10227797;29;20050;-87
2022/01/01 18:25:55;;;;;;;0.10;0.10;;;9.40;99.90;;;;;;10218399;28;20035;-87
2022/01/01 18:31:02;;;;;;;0.00;0.00;;;9.40;99.90;;;;;;10213937;29;20040;-87
2022/01/01 18:36:04;;;;;;;1.63;1.53;;;9.40;99.90;;;;;;10241318;29;20077;-86
2022/01/01 18:41:04;;;;;;;0.93;0.93;;;9.50;99.90;;;;;;10213552;29;20051;-87
2022/01/01 18:46:05;;;;;;;0.40;0.40;;;9.50;99.90;;;;;;10239581;29;20045;-87
2022/01/01 18:51:26;;;;;;;3.20;3.00;;;9.50;99.90;;;;;;10234750;29;20036;-86
2022/01/01 18:56:31;;;;;;;2.83;1.40;;;9.50;99.90;;;;;;10223718;29;20031;-87
2022/01/01 19:01:37;;;;;;;2.70;1.60;;;9.40;99.90;;;;;;10223535;29;20034;-88
2022/01/01 19:06:41;;;;;;;3.45;2.28;;;9.40;99.90;;;;;;10236624;29;20028;-87
2022/01/01 19:11:53;;;;;;;3.90;3.20;;;9.40;99.90;;;;;;10231669;29;20492;-86
2022/01/01 19:16:54;;;;;;;1.53;1.43;;;9.40;99.90;;;;;;10215715;29;20032;-84
2022/01/01 19:21:56;;;;;;;0.73;0.70;;;9.40;99.90;;;;;;10219154;29;20035;-87
2022/01/01 19:26:57;;;;;;;0.93;0.90;;;9.30;99.90;;;;;;10230667;29;20062;-86
2022/01/01 19:31:58;;;;;;;0.20;0.20;;;9.40;99.90;;;;;;10244206;29;20027;-86
2022/01/01 19:37:00;;;;;;;0.00;0.00;;;9.30;99.90;;;;;;10212977;28;20114;-87
2022/01/01 19:42:12;;;;;;;0.00;0.00;;;9.30;99.90;;;;;;10216508;29;20039;-86
2022/01/01 19:47:28;;;;;;;0.00;0.00;;;9.30;99.90;;;;;;10229587;29;20118;-87
2022/01/01 19:52:30;;;;;;;1.77;1.63;;;9.30;99.90;;;;;;10214903;29;20035;-86
2022/01/01 19:57:32;;;;;;;0.27;0.27;;;9.30;99.90;;;;;;10226034;29;20035;-86
2022/01/01 20:02:33;;;;;;;0.47;0.47;;;9.20;99.90;;;;;;10211129;29;20028;-87
2022/01/01 20:07:34;;;;;;;0.83;0.77;;;9.20;99.90;;;;;;10222439;29;20031;-85
2022/01/01 20:12:35;;;;;;;0.77;0.77;;;9.20;99.90;;;;;;10217245;29;20036;-86
2022/01/01 20:17:36;;;;;;;0.10;0.10;;;9.20;99.90;;;;;;10223471;29;20035;-86
2022/01/01 20:22:37;;;;;;;3.53;2.17;;;9.10;99.90;;;;;;10229265;29;20034;-87
2022/01/01 20:27:37;;;;;;;0.00;0.00;;;9.20;99.90;;;;;;10215602;29;20507;-87
2022/01/01 20:32:38;;;;;;;0.10;0.10;;;9.10;99.90;;;;;;10239305;29;20043;-87
2022/01/01 20:37:40;;;;;;;0.03;0.03;;;9.10;99.90;;;;;;10223984;28;20114;-86
2022/01/01 20:42:40;;;;;;;0.10;0.10;;;9.10;99.90;;;;;;10209298;29;20051;-88
2022/01/01 20:47:41;;;;;;;0.43;0.43;;;9.20;99.90;;;;;;10207346;28;20046;-86
2022/01/01 20:52:42;;;;;;;0.43;0.43;;;9.10;99.90;;;;;;10226399;29;20036;-86
2022/01/01 20:57:43;;;;;;;0.87;0.67;;;9.20;99.90;;;;;;10208104;29;20142;-87
2022/01/01 21:02:48;;;;;;;0.40;0.40;;;9.20;99.90;;;;;;10228119;29;20395;-88
2022/01/01 21:07:52;;;;;;;3.55;0.88;;;9.20;99.90;;;;;;10229844;29;20032;-87
2022/01/01 21:12:53;;;;;;;2.17;0.98;;;9.20;99.90;;;;;;10207878;29;20027;-86
2022/01/01 21:17:54;;;;;;;0.00;0.00;;;9.20;99.90;;;;;;10219997;29;20028;-86
2022/01/01 21:22:56;;;;;;;1.53;1.43;;;9.20;99.90;;;;;;10198838;29;20492;-86
2022/01/01 21:27:56;;;;;;;0.50;0.50;;;9.20;99.90;;;;;;10240987;29;20035;-87
2022/01/01 21:32:57;;;;;;;2.65;1.67;;;9.20;99.90;;;;;;10243931;29;20053;-86
2022/01/01 21:37:58;;;;;;;3.30;1.30;;;9.20;99.90;;;;;;10216582;29;20060;-87
2022/01/01 21:43:12;;;;;;;1.37;1.27;;;9.10;99.90;;;;;;10189534;29;20424;-87
2022/01/01 21:48:13;;;;;;;1.27;1.27;;;9.10;99.90;;;;;;10230357;29;20031;-87
2022/01/01 21:53:15;;;;;;;1.83;0.77;;;9.10;99.90;;;;;;10232312;29;20603;-87
2022/01/01 21:58:18;;;;;;;2.63;2.43;;;9.10;99.90;;;;;;10203405;29;20056;-88
2022/01/01 22:03:19;;;;;;;1.63;1.53;;;9.10;99.90;;;;;;10210537;29;20426;-86
2022/01/01 22:08:19;;;;;;;1.23;1.23;;;9.10;99.90;;;;;;10230779;29;20036;-86
2022/01/01 22:13:20;;;;;;;7.63;4.53;;;9.10;99.90;;;;;;10243687;29;20476;-87
2022/01/01 22:18:21;;;;;;;7.93;2.83;;;9.10;99.90;;;;;;10228152;29;20047;-87
2022/01/01 22:23:21;;;;;;;1.43;1.33;;;9.10;99.90;;;;;;10220876;29;20097;-85
2022/01/01 22:28:22;;;;;;;3.03;2.50;;;9.10;99.90;;;;;;10213682;29;20167;-89
2022/01/01 22:33:23;;;;;;;0.87;0.87;;;9.10;99.90;;;;;;10220869;29;20042;-88
2022/01/01 22:38:23;;;;;;;0.13;0.13;;;9.10;99.90;;;;;;10249777;29;20059;-87
2022/01/01 22:43:24;;;;;;;0.33;0.33;;;9.10;99.90;;;;;;10238842;29;20028;-86
2022/01/01 22:48:25;;;;;;;1.70;1.60;;;9.10;99.90;;;;;;10205431;29;20039;-86
2022/01/01 22:53:26;;;;;;;0.50;0.50;;;9.10;99.90;;;;;;10257285;28;20414;-87
2022/01/01 22:58:27;;;;;;;3.20;2.20;;;9.10;99.90;;;;;;10248829;28;20383;-87
2022/01/01 23:03:28;;;;;;;1.33;0.83;;;9.10;99.90;;;;;;10253168;28;20043;-86
2022/01/01 23:08:28;;;;;;;1.47;1.30;;;9.10;99.90;;;;;;10265618;28;20491;-87
2022/01/01 23:13:33;;;;;;;10.27;5.10;;;9.10;99.90;;;;;;10268902;28;20027;-87
2022/01/01 23:23:37;;;;;;;1.17;1.17;;;9.10;99.90;;;;;;10256234;28;20389;-86
2022/01/01 23:28:39;;;;;;;0.77;0.77;;;9.10;99.90;;;;;;10256643;28;20043;-87
2022/01/01 23:33:41;;;;;;;0.87;0.87;;;9.10;99.90;;;;;;10268927;28;20028;-86
2022/01/01 23:38:41;;;;;;;1.17;1.00;;;9.00;99.90;;;;;;10271665;28;20055;-87
2022/01/01 23:43:42;;;;;;;0.30;0.30;;;9.00;99.90;;;;;;10264437;28;20046;-87
2022/01/01 23:48:43;;;;;;;0.83;0.30;;;9.00;99.90;;;;;;10266018;28;20035;-88
2022/01/01 23:54:01;;;;;;;9.23;0.70;;;9.00;99.90;;;;;;10229613;28;20028;-87
2022/01/01 23:59:21;;;;;;;1.87;1.77;;;9.00;99.90;;;;;;10268592;28;20818;-86
